sensor_id;sensor_type;location;lat;lon;timestamp;P1;durP1;ratioP1;P2;durP2;ratioP2
70239;SDS011;57629;52.256;10.414;2022-08-19T00:00:37;5.40;;;4.30;;
70239;SDS011;57629;52.256;10.414;2022-08-19T00:01:41;5.15;;;3.80;;
70239;SDS011;57629;52.256;10.414;2022-08-19T00:02:43;4.80;;;4.30;;
70239;SDS011;57629;52.256;10.414;2022-08-19T00:03:43;4.27;;;3.83;;
70239;SDS011;57629;52.256;10.414;2022-08-19T00:04:44;4.88;;;3.80;;
70239;SDS011;57629;52.256;10.414;2022-08-19T00:05:45;4.90;;;3.70;;
70239;SDS011;57629;52.256;10.414;2022-08-19T00:06:46;4.55;;;3.80;;
70239;SDS011;57629;52.256;10.414;2022-08-19T00:07:47;4.95;;;3.53;;
70239;SDS011;57629;52.256;10.414;2022-08-19T00:08:48;4.53;;;3.60;;
70239;SDS011;57629;52.256;10.414;2022-08-19T00:09:48;5.03;;;4.00;;
70239;SDS011;57629;52.256;10.414;2022-08-19T00:10:49;5.13;;;4.28;;
70239;SDS011;57629;52.256;10.414;2022-08-19T00:11:50;6.43;;;3.90;;
70239;SDS011;57629;52.256;10.414;2022-08-19T00:12:51;4.72;;;3.70;;
70239;SDS011;57629;52.256;10.414;2022-08-19T00:13:51;7.43;;;4.18;;
70239;SDS011;57629;52.256;10.414;2022-08-19T00:14:52;5.07;;;4.35;;
70239;SDS011;57629;52.256;10.414;2022-08-19T00:15:53;4.17;;;3.63;;
70239;SDS011;57629;52.256;10.414;2022-08-19T00:16:55;5.43;;;4.55;;
70239;SDS011;57629;52.256;10.414;2022-08-19T00:17:56;5.15;;;4.22;;
70239;SDS011;57629;52.256;10.414;2022-08-19T00:18:56;5.53;;;3.80;;
70239;SDS011;57629;52.256;10.414;2022-08-19T00:19:58;4.82;;;4.00;;
70239;SDS011;57629;52.256;10.414;2022-08-19T00:20:58;4.97;;;4.13;;
70239;SDS011;57629;52.256;10.414;2022-08-19T00:21:59;5.13;;;4.00;;
70239;SDS011;57629;52.256;10.414;2022-08-19T00:23:00;5.80;;;4.10;;
70239;SDS011;57629;52.256;10.414;2022-08-19T00:24:01;5.13;;;3.83;;
70239;SDS011;57629;52.256;10.414;2022-08-19T00:25:02;4.30;;;3.65;;
70239;SDS011;57629;52.256;10.414;2022-08-19T00:26:03;5.25;;;3.83;;
70239;SDS011;57629;52.256;10.414;2022-08-19T00:27:05;5.07;;;3.95;;
70239;SDS011;57629;52.256;10.414;2022-08-19T00:28:05;4.88;;;4.03;;
70239;SDS011;57629;52.256;10.414;2022-08-19T00:29:06;4.80;;;4.30;;
70239;SDS011;57629;52.256;10.414;2022-08-19T00:30:21;5.00;;;3.25;;
70239;SDS011;57629;52.256;10.414;2022-08-19T00:31:31;4.80;;;4.00;;
70239;SDS011;57629;52.256;10.414;2022-08-19T00:33:49;4.37;;;3.60;;
70239;SDS011;57629;52.256;10.414;2022-08-19T00:35:03;4.50;;;3.72;;
70239;SDS011;57629;52.256;10.414;2022-08-19T00:36:08;4.88;;;4.00;;
70239;SDS011;57629;52.256;10.414;2022-08-19T00:37:09;5.20;;;3.88;;
70239;SDS011;57629;52.256;10.414;2022-08-19T00:38:10;4.37;;;3.73;;
70239;SDS011;57629;52.256;10.414;2022-08-19T00:39:12;4.72;;;3.95;;
70239;SDS011;57629;52.256;10.414;2022-08-19T00:40:13;5.13;;;4.10;;
70239;SDS011;57629;52.256;10.414;2022-08-19T00:41:16;4.63;;;3.97;;
70239;SDS011;57629;52.256;10.414;2022-08-19T00:42:19;4.40;;;3.70;;
70239;SDS011;57629;52.256;10.414;2022-08-19T00:43:20;4.80;;;3.83;;
70239;SDS011;57629;52.256;10.414;2022-08-19T00:44:24;3.95;;;3.33;;
70239;SDS011;57629;52.256;10.414;2022-08-19T00:45:27;4.88;;;3.80;;
70239;SDS011;57629;52.256;10.414;2022-08-19T00:46:28;5.63;;;4.00;;
70239;SDS011;57629;52.256;10.414;2022-08-19T00:47:29;4.60;;;3.90;;
70239;SDS011;57629;52.256;10.414;2022-08-19T00:48:32;4.47;;;3.88;;
70239;SDS011;57629;52.256;10.414;2022-08-19T00:49:34;5.63;;;4.00;;
70239;SDS011;57629;52.256;10.414;2022-08-19T00:50:38;6.13;;;3.30;;
70239;SDS011;57629;52.256;10.414;2022-08-19T00:51:41;4.93;;;3.78;;
70239;SDS011;57629;52.256;10.414;2022-08-19T00:52:45;4.97;;;3.95;;
70239;SDS011;57629;52.256;10.414;2022-08-19T00:53:48;4.63;;;3.80;;
70239;SDS011;57629;52.256;10.414;2022-08-19T00:54:49;4.20;;;3.60;;
70239;SDS011;57629;52.256;10.414;2022-08-19T00:55:52;4.70;;;3.67;;
70239;SDS011;57629;52.256;10.414;2022-08-19T00:56:55;4.18;;;3.45;;
70239;SDS011;57629;52.256;10.414;2022-08-19T00:57:58;4.57;;;3.50;;
70239;SDS011;57629;52.256;10.414;2022-08-19T00:59:02;4.38;;;3.63;;
70239;SDS011;57629;52.256;10.414;2022-08-19T01:00:05;4.32;;;3.75;;
70239;SDS011;57629;52.256;10.414;2022-08-19T01:01:08;6.07;;;3.95;;
70239;SDS011;57629;52.256;10.414;2022-08-19T01:02:08;4.47;;;3.87;;
70239;SDS011;57629;52.256;10.414;2022-08-19T01:03:10;4.57;;;3.67;;
70239;SDS011;57629;52.256;10.414;2022-08-19T01:04:13;5.03;;;3.45;;
70239;SDS011;57629;52.256;10.414;2022-08-19T01:05:14;4.13;;;3.40;;
70239;SDS011;57629;52.256;10.414;2022-08-19T01:06:17;4.70;;;3.90;;
70239;SDS011;57629;52.256;10.414;2022-08-19T01:07:18;4.27;;;3.60;;
70239;SDS011;57629;52.256;10.414;2022-08-19T01:08:19;4.35;;;3.58;;
70239;SDS011;57629;52.256;10.414;2022-08-19T01:09:20;4.32;;;3.92;;
70239;SDS011;57629;52.256;10.414;2022-08-19T01:10:21;4.43;;;3.23;;
70239;SDS011;57629;52.256;10.414;2022-08-19T01:11:26;5.20;;;3.55;;
70239;SDS011;57629;52.256;10.414;2022-08-19T01:12:27;4.40;;;3.53;;
70239;SDS011;57629;52.256;10.414;2022-08-19T01:13:29;4.93;;;3.92;;
70239;SDS011;57629;52.256;10.414;2022-08-19T01:14:32;4.45;;;3.80;;
70239;SDS011;57629;52.256;10.414;2022-08-19T01:15:34;5.07;;;3.70;;
70239;SDS011;57629;52.256;10.414;2022-08-19T01:16:40;4.35;;;3.55;;
70239;SDS011;57629;52.256;10.414;2022-08-19T01:17:41;5.68;;;3.97;;
70239;SDS011;57629;52.256;10.414;2022-08-19T01:18:43;6.78;;;4.00;;
70239;SDS011;57629;52.256;10.414;2022-08-19T01:19:45;4.88;;;3.90;;
70239;SDS011;57629;52.256;10.414;2022-08-19T01:20:47;4.22;;;3.63;;
70239;SDS011;57629;52.256;10.414;2022-08-19T01:21:50;4.10;;;3.67;;
70239;SDS011;57629;52.256;10.414;2022-08-19T01:22:57;4.57;;;3.50;;
70239;SDS011;57629;52.256;10.414;2022-08-19T01:23:58;4.18;;;3.65;;
70239;SDS011;57629;52.256;10.414;2022-08-19T01:24:59;4.57;;;3.35;;
70239;SDS011;57629;52.256;10.414;2022-08-19T01:26:00;4.30;;;3.78;;
70239;SDS011;57629;52.256;10.414;2022-08-19T01:27:03;4.53;;;3.70;;
70239;SDS011;57629;52.256;10.414;2022-08-19T01:28:04;4.40;;;4.00;;
70239;SDS011;57629;52.256;10.414;2022-08-19T01:29:05;4.38;;;3.58;;
70239;SDS011;57629;52.256;10.414;2022-08-19T01:30:08;4.18;;;3.50;;
70239;SDS011;57629;52.256;10.414;2022-08-19T01:31:10;4.60;;;3.70;;
70239;SDS011;57629;52.256;10.414;2022-08-19T01:32:15;4.20;;;3.23;;
70239;SDS011;57629;52.256;10.414;2022-08-19T01:33:16;5.05;;;3.67;;
70239;SDS011;57629;52.256;10.414;2022-08-19T01:34:17;4.70;;;3.97;;
70239;SDS011;57629;52.256;10.414;2022-08-19T01:35:18;4.47;;;3.70;;
70239;SDS011;57629;52.256;10.414;2022-08-19T01:36:22;4.85;;;3.55;;
70239;SDS011;57629;52.256;10.414;2022-08-19T01:37:24;4.45;;;3.78;;
70239;SDS011;57629;52.256;10.414;2022-08-19T01:38:26;4.30;;;3.43;;
70239;SDS011;57629;52.256;10.414;2022-08-19T01:39:27;4.72;;;3.55;;
70239;SDS011;57629;52.256;10.414;2022-08-19T01:40:29;4.78;;;3.90;;
70239;SDS011;57629;52.256;10.414;2022-08-19T01:41:31;3.95;;;3.50;;
70239;SDS011;57629;52.256;10.414;2022-08-19T01:42:32;4.10;;;3.70;;
70239;SDS011;57629;52.256;10.414;2022-08-19T01:43:32;4.53;;;3.53;;
70239;SDS011;57629;52.256;10.414;2022-08-19T01:44:34;7.07;;;3.55;;
70239;SDS011;57629;52.256;10.414;2022-08-19T01:45:35;4.57;;;4.07;;
70239;SDS011;57629;52.256;10.414;2022-08-19T01:46:35;4.75;;;3.63;;
70239;SDS011;57629;52.256;10.414;2022-08-19T01:47:37;4.50;;;3.53;;
70239;SDS011;57629;52.256;10.414;2022-08-19T01:48:39;5.55;;;3.40;;
70239;SDS011;57629;52.256;10.414;2022-08-19T01:49:41;4.85;;;3.20;;
70239;SDS011;57629;52.256;10.414;2022-08-19T01:50:41;4.63;;;3.50;;
70239;SDS011;57629;52.256;10.414;2022-08-19T01:51:42;4.13;;;3.40;;
70239;SDS011;57629;52.256;10.414;2022-08-19T01:52:43;3.70;;;3.30;;
70239;SDS011;57629;52.256;10.414;2022-08-19T01:53:48;4.93;;;3.22;;
70239;SDS011;57629;52.256;10.414;2022-08-19T01:54:49;5.25;;;3.25;;
70239;SDS011;57629;52.256;10.414;2022-08-19T01:55:50;4.20;;;3.43;;
70239;SDS011;57629;52.256;10.414;2022-08-19T01:56:51;3.80;;;3.33;;
70239;SDS011;57629;52.256;10.414;2022-08-19T01:57:53;4.63;;;3.58;;
70239;SDS011;57629;52.256;10.414;2022-08-19T01:58:58;5.07;;;3.70;;
70239;SDS011;57629;52.256;10.414;2022-08-19T02:00:02;4.78;;;3.67;;
70239;SDS011;57629;52.256;10.414;2022-08-19T02:01:05;4.63;;;3.40;;
70239;SDS011;57629;52.256;10.414;2022-08-19T02:02:07;4.18;;;3.70;;
70239;SDS011;57629;52.256;10.414;2022-08-19T02:03:08;4.60;;;3.65;;
70239;SDS011;57629;52.256;10.414;2022-08-19T02:04:09;4.63;;;3.40;;
70239;SDS011;57629;52.256;10.414;2022-08-19T02:05:10;5.97;;;3.53;;
70239;SDS011;57629;52.256;10.414;2022-08-19T02:06:12;4.88;;;3.65;;
70239;SDS011;57629;52.256;10.414;2022-08-19T02:07:13;4.63;;;3.42;;
70239;SDS011;57629;52.256;10.414;2022-08-19T02:08:13;4.47;;;3.58;;
70239;SDS011;57629;52.256;10.414;2022-08-19T02:09:15;4.27;;;3.50;;
70239;SDS011;57629;52.256;10.414;2022-08-19T02:10:17;4.57;;;3.85;;
70239;SDS011;57629;52.256;10.414;2022-08-19T02:11:20;4.60;;;3.35;;
70239;SDS011;57629;52.256;10.414;2022-08-19T02:12:23;4.25;;;3.70;;
70239;SDS011;57629;52.256;10.414;2022-08-19T02:13:26;4.17;;;3.57;;
70239;SDS011;57629;52.256;10.414;2022-08-19T02:14:27;4.60;;;3.33;;
70239;SDS011;57629;52.256;10.414;2022-08-19T02:15:28;4.75;;;3.38;;
70239;SDS011;57629;52.256;10.414;2022-08-19T02:16:29;4.87;;;4.00;;
70239;SDS011;57629;52.256;10.414;2022-08-19T02:17:30;3.80;;;3.40;;
70239;SDS011;57629;52.256;10.414;2022-08-19T02:18:31;4.90;;;3.53;;
70239;SDS011;57629;52.256;10.414;2022-08-19T02:19:31;5.22;;;3.78;;
70239;SDS011;57629;52.256;10.414;2022-08-19T02:20:32;4.40;;;3.60;;
70239;SDS011;57629;52.256;10.414;2022-08-19T02:21:33;4.53;;;3.77;;
70239;SDS011;57629;52.256;10.414;2022-08-19T02:22:34;4.85;;;3.55;;
70239;SDS011;57629;52.256;10.414;2022-08-19T02:23:35;5.65;;;3.58;;
70239;SDS011;57629;52.256;10.414;2022-08-19T02:24:37;5.50;;;3.67;;
70239;SDS011;57629;52.256;10.414;2022-08-19T02:25:38;4.53;;;3.53;;
70239;SDS011;57629;52.256;10.414;2022-08-19T02:26:38;4.18;;;3.78;;
70239;SDS011;57629;52.256;10.414;2022-08-19T02:27:40;4.88;;;3.80;;
70239;SDS011;57629;52.256;10.414;2022-08-19T02:28:41;5.88;;;3.33;;
70239;SDS011;57629;52.256;10.414;2022-08-19T02:29:42;4.40;;;3.60;;
70239;SDS011;57629;52.256;10.414;2022-08-19T02:30:45;5.13;;;3.35;;
70239;SDS011;57629;52.256;10.414;2022-08-19T02:31:47;4.28;;;3.10;;
70239;SDS011;57629;52.256;10.414;2022-08-19T02:32:47;4.78;;;3.63;;
70239;SDS011;57629;52.256;10.414;2022-08-19T02:33:48;5.23;;;3.70;;
70239;SDS011;57629;52.256;10.414;2022-08-19T02:34:49;5.25;;;3.88;;
70239;SDS011;57629;52.256;10.414;2022-08-19T02:35:50;5.35;;;3.70;;
70239;SDS011;57629;52.256;10.414;2022-08-19T02:36:50;5.03;;;3.73;;
70239;SDS011;57629;52.256;10.414;2022-08-19T02:37:51;4.93;;;3.58;;
70239;SDS011;57629;52.256;10.414;2022-08-19T02:38:52;5.50;;;3.67;;
70239;SDS011;57629;52.256;10.414;2022-08-19T02:39:54;3.65;;;3.15;;
70239;SDS011;57629;52.256;10.414;2022-08-19T02:40:57;4.40;;;2.90;;
70239;SDS011;57629;52.256;10.414;2022-08-19T02:41:59;4.13;;;3.42;;
70239;SDS011;57629;52.256;10.414;2022-08-19T02:42:59;3.92;;;3.13;;
70239;SDS011;57629;52.256;10.414;2022-08-19T02:44:01;4.75;;;3.67;;
70239;SDS011;57629;52.256;10.414;2022-08-19T02:45:03;5.77;;;3.73;;
70239;SDS011;57629;52.256;10.414;2022-08-19T02:46:12;4.72;;;3.28;;
70239;SDS011;57629;52.256;10.414;2022-08-19T02:47:14;4.47;;;3.17;;
70239;SDS011;57629;52.256;10.414;2022-08-19T02:48:15;4.95;;;3.80;;
70239;SDS011;57629;52.256;10.414;2022-08-19T02:49:16;5.38;;;3.67;;
70239;SDS011;57629;52.256;10.414;2022-08-19T02:50:17;6.27;;;3.70;;
70239;SDS011;57629;52.256;10.414;2022-08-19T02:51:18;4.47;;;3.90;;
70239;SDS011;57629;52.256;10.414;2022-08-19T02:52:21;4.40;;;3.78;;
70239;SDS011;57629;52.256;10.414;2022-08-19T02:53:22;4.87;;;3.63;;
70239;SDS011;57629;52.256;10.414;2022-08-19T02:54:23;5.50;;;3.72;;
70239;SDS011;57629;52.256;10.414;2022-08-19T02:55:25;4.93;;;3.50;;
70239;SDS011;57629;52.256;10.414;2022-08-19T02:56:26;5.53;;;3.70;;
70239;SDS011;57629;52.256;10.414;2022-08-19T02:57:27;4.60;;;3.40;;
70239;SDS011;57629;52.256;10.414;2022-08-19T02:58:30;5.03;;;3.70;;
70239;SDS011;57629;52.256;10.414;2022-08-19T02:59:30;4.35;;;3.60;;
70239;SDS011;57629;52.256;10.414;2022-08-19T03:00:31;4.68;;;3.65;;
70239;SDS011;57629;52.256;10.414;2022-08-19T03:01:32;5.00;;;3.53;;
70239;SDS011;57629;52.256;10.414;2022-08-19T03:02:33;4.25;;;3.45;;
70239;SDS011;57629;52.256;10.414;2022-08-19T03:03:33;4.57;;;3.70;;
70239;SDS011;57629;52.256;10.414;2022-08-19T03:04:34;4.07;;;3.50;;
70239;SDS011;57629;52.256;10.414;2022-08-19T03:05:35;4.43;;;3.63;;
70239;SDS011;57629;52.256;10.414;2022-08-19T03:06:35;4.97;;;3.57;;
70239;SDS011;57629;52.256;10.414;2022-08-19T03:07:36;4.63;;;3.40;;
70239;SDS011;57629;52.256;10.414;2022-08-19T03:08:38;4.38;;;3.17;;
70239;SDS011;57629;52.256;10.414;2022-08-19T03:09:39;5.47;;;4.47;;
70239;SDS011;57629;52.256;10.414;2022-08-19T03:10:42;4.53;;;3.53;;
70239;SDS011;57629;52.256;10.414;2022-08-19T03:11:45;4.22;;;3.50;;
70239;SDS011;57629;52.256;10.414;2022-08-19T03:12:46;5.28;;;3.75;;
70239;SDS011;57629;52.256;10.414;2022-08-19T03:13:47;4.80;;;3.50;;
70239;SDS011;57629;52.256;10.414;2022-08-19T03:14:48;3.83;;;3.40;;
70239;SDS011;57629;52.256;10.414;2022-08-19T03:15:49;4.55;;;4.00;;
70239;SDS011;57629;52.256;10.414;2022-08-19T03:16:50;4.45;;;3.50;;
70239;SDS011;57629;52.256;10.414;2022-08-19T03:17:52;4.67;;;3.73;;
70239;SDS011;57629;52.256;10.414;2022-08-19T03:18:53;4.88;;;3.20;;
70239;SDS011;57629;52.256;10.414;2022-08-19T03:19:55;4.32;;;3.92;;
70239;SDS011;57629;52.256;10.414;2022-08-19T03:20:56;4.30;;;3.70;;
70239;SDS011;57629;52.256;10.414;2022-08-19T03:21:57;4.60;;;3.25;;
70239;SDS011;57629;52.256;10.414;2022-08-19T03:22:58;4.18;;;3.38;;
70239;SDS011;57629;52.256;10.414;2022-08-19T03:23:59;5.60;;;3.80;;
70239;SDS011;57629;52.256;10.414;2022-08-19T03:25:02;4.28;;;3.70;;
70239;SDS011;57629;52.256;10.414;2022-08-19T03:26:05;5.30;;;3.70;;
70239;SDS011;57629;52.256;10.414;2022-08-19T03:27:06;3.88;;;3.35;;
70239;SDS011;57629;52.256;10.414;2022-08-19T03:28:06;4.10;;;3.15;;
70239;SDS011;57629;52.256;10.414;2022-08-19T03:29:07;5.00;;;3.87;;
70239;SDS011;57629;52.256;10.414;2022-08-19T03:30:09;4.10;;;3.40;;
70239;SDS011;57629;52.256;10.414;2022-08-19T03:31:11;3.95;;;3.10;;
70239;SDS011;57629;52.256;10.414;2022-08-19T03:32:13;4.38;;;3.65;;
70239;SDS011;57629;52.256;10.414;2022-08-19T03:33:14;4.50;;;3.87;;
70239;SDS011;57629;52.256;10.414;2022-08-19T03:34:15;4.85;;;3.78;;
70239;SDS011;57629;52.256;10.414;2022-08-19T03:35:18;4.65;;;3.72;;
70239;SDS011;57629;52.256;10.414;2022-08-19T03:36:20;4.93;;;3.40;;
70239;SDS011;57629;52.256;10.414;2022-08-19T03:37:22;4.37;;;3.73;;
70239;SDS011;57629;52.256;10.414;2022-08-19T03:38:23;4.28;;;3.40;;
70239;SDS011;57629;52.256;10.414;2022-08-19T03:39:23;4.63;;;3.77;;
70239;SDS011;57629;52.256;10.414;2022-08-19T03:40:25;5.15;;;3.50;;
70239;SDS011;57629;52.256;10.414;2022-08-19T03:41:27;4.22;;;3.28;;
70239;SDS011;57629;52.256;10.414;2022-08-19T03:42:30;4.57;;;3.38;;
70239;SDS011;57629;52.256;10.414;2022-08-19T03:43:30;4.87;;;3.40;;
70239;SDS011;57629;52.256;10.414;2022-08-19T03:44:31;4.00;;;3.10;;
70239;SDS011;57629;52.256;10.414;2022-08-19T03:45:32;4.20;;;3.15;;
70239;SDS011;57629;52.256;10.414;2022-08-19T03:46:33;4.77;;;3.50;;
70239;SDS011;57629;52.256;10.414;2022-08-19T03:47:36;3.90;;;3.22;;
70239;SDS011;57629;52.256;10.414;2022-08-19T03:48:38;5.78;;;3.60;;
70239;SDS011;57629;52.256;10.414;2022-08-19T03:49:40;4.18;;;3.38;;
70239;SDS011;57629;52.256;10.414;2022-08-19T03:50:40;4.13;;;3.30;;
70239;SDS011;57629;52.256;10.414;2022-08-19T03:51:41;4.80;;;3.53;;
70239;SDS011;57629;52.256;10.414;2022-08-19T03:52:45;4.25;;;3.03;;
70239;SDS011;57629;52.256;10.414;2022-08-19T03:53:48;4.90;;;3.38;;
70239;SDS011;57629;52.256;10.414;2022-08-19T03:54:49;4.50;;;3.63;;
70239;SDS011;57629;52.256;10.414;2022-08-19T03:55:50;4.13;;;3.25;;
70239;SDS011;57629;52.256;10.414;2022-08-19T03:56:52;4.35;;;3.85;;
70239;SDS011;57629;52.256;10.414;2022-08-19T03:57:54;5.07;;;3.72;;
70239;SDS011;57629;52.256;10.414;2022-08-19T03:58:55;4.20;;;3.40;;
70239;SDS011;57629;52.256;10.414;2022-08-19T03:59:56;4.63;;;3.33;;
70239;SDS011;57629;52.256;10.414;2022-08-19T04:00:57;5.10;;;3.67;;
70239;SDS011;57629;52.256;10.414;2022-08-19T04:01:59;6.37;;;3.63;;
70239;SDS011;57629;52.256;10.414;2022-08-19T04:03:01;4.82;;;3.35;;
70239;SDS011;57629;52.256;10.414;2022-08-19T04:04:02;5.70;;;3.53;;
70239;SDS011;57629;52.256;10.414;2022-08-19T04:05:03;3.92;;;3.28;;
70239;SDS011;57629;52.256;10.414;2022-08-19T04:06:11;4.40;;;3.53;;
70239;SDS011;57629;52.256;10.414;2022-08-19T04:07:13;4.50;;;3.40;;
70239;SDS011;57629;52.256;10.414;2022-08-19T04:08:14;4.43;;;3.30;;
70239;SDS011;57629;52.256;10.414;2022-08-19T04:09:15;4.83;;;3.77;;
70239;SDS011;57629;52.256;10.414;2022-08-19T04:10:15;4.32;;;3.45;;
70239;SDS011;57629;52.256;10.414;2022-08-19T04:11:17;5.13;;;3.63;;
70239;SDS011;57629;52.256;10.414;2022-08-19T04:12:21;4.85;;;3.50;;
70239;SDS011;57629;52.256;10.414;2022-08-19T04:13:21;4.15;;;3.22;;
70239;SDS011;57629;52.256;10.414;2022-08-19T04:14:24;4.03;;;3.20;;
70239;SDS011;57629;52.256;10.414;2022-08-19T04:15:26;4.20;;;3.13;;
70239;SDS011;57629;52.256;10.414;2022-08-19T04:16:28;4.90;;;3.70;;
70239;SDS011;57629;52.256;10.414;2022-08-19T04:17:29;4.15;;;3.35;;
70239;SDS011;57629;52.256;10.414;2022-08-19T04:18:29;4.25;;;3.30;;
70239;SDS011;57629;52.256;10.414;2022-08-19T04:19:30;4.57;;;3.40;;
70239;SDS011;57629;52.256;10.414;2022-08-19T04:20:31;4.63;;;3.30;;
70239;SDS011;57629;52.256;10.414;2022-08-19T04:21:32;5.53;;;3.53;;
70239;SDS011;57629;52.256;10.414;2022-08-19T04:22:34;3.92;;;3.40;;
70239;SDS011;57629;52.256;10.414;2022-08-19T04:23:34;4.13;;;3.10;;
70239;SDS011;57629;52.256;10.414;2022-08-19T04:24:35;4.40;;;3.38;;
70239;SDS011;57629;52.256;10.414;2022-08-19T04:25:37;3.83;;;3.08;;
70239;SDS011;57629;52.256;10.414;2022-08-19T04:26:39;4.32;;;3.20;;
70239;SDS011;57629;52.256;10.414;2022-08-19T04:27:41;3.83;;;3.40;;
70239;SDS011;57629;52.256;10.414;2022-08-19T04:28:42;4.55;;;3.15;;
70239;SDS011;57629;52.256;10.414;2022-08-19T04:29:42;4.20;;;3.80;;
70239;SDS011;57629;52.256;10.414;2022-08-19T04:30:44;4.13;;;3.03;;
70239;SDS011;57629;52.256;10.414;2022-08-19T04:31:47;6.57;;;3.10;;
70239;SDS011;57629;52.256;10.414;2022-08-19T04:32:49;4.07;;;3.23;;
70239;SDS011;57629;52.256;10.414;2022-08-19T04:33:49;4.13;;;3.10;;
70239;SDS011;57629;52.256;10.414;2022-08-19T04:34:50;4.03;;;3.10;;
70239;SDS011;57629;52.256;10.414;2022-08-19T04:35:51;4.43;;;3.30;;
70239;SDS011;57629;52.256;10.414;2022-08-19T04:36:53;4.25;;;3.30;;
70239;SDS011;57629;52.256;10.414;2022-08-19T04:37:55;4.15;;;2.90;;
70239;SDS011;57629;52.256;10.414;2022-08-19T04:38:56;3.70;;;3.07;;
70239;SDS011;57629;52.256;10.414;2022-08-19T04:39:58;3.95;;;3.20;;
70239;SDS011;57629;52.256;10.414;2022-08-19T04:41:02;4.38;;;3.40;;
70239;SDS011;57629;52.256;10.414;2022-08-19T04:42:03;3.95;;;2.88;;
70239;SDS011;57629;52.256;10.414;2022-08-19T04:43:05;4.85;;;3.40;;
70239;SDS011;57629;52.256;10.414;2022-08-19T04:44:06;4.50;;;3.05;;
70239;SDS011;57629;52.256;10.414;2022-08-19T04:45:09;4.57;;;3.47;;
70239;SDS011;57629;52.256;10.414;2022-08-19T04:46:11;4.00;;;3.20;;
70239;SDS011;57629;52.256;10.414;2022-08-19T04:47:12;3.85;;;3.20;;
70239;SDS011;57629;52.256;10.414;2022-08-19T04:48:13;4.32;;;3.35;;
70239;SDS011;57629;52.256;10.414;2022-08-19T04:49:14;5.25;;;3.58;;
70239;SDS011;57629;52.256;10.414;2022-08-19T04:50:16;4.60;;;3.20;;
70239;SDS011;57629;52.256;10.414;2022-08-19T04:51:17;3.45;;;3.08;;
70239;SDS011;57629;52.256;10.414;2022-08-19T04:52:18;3.72;;;3.08;;
70239;SDS011;57629;52.256;10.414;2022-08-19T04:53:18;3.97;;;3.13;;
70239;SDS011;57629;52.256;10.414;2022-08-19T04:54:19;4.28;;;2.97;;
70239;SDS011;57629;52.256;10.414;2022-08-19T04:55:21;4.25;;;3.20;;
70239;SDS011;57629;52.256;10.414;2022-08-19T04:56:22;3.50;;;3.00;;
70239;SDS011;57629;52.256;10.414;2022-08-19T04:57:24;4.10;;;3.20;;
70239;SDS011;57629;52.256;10.414;2022-08-19T04:58:27;4.25;;;3.10;;
70239;SDS011;57629;52.256;10.414;2022-08-19T04:59:28;4.50;;;3.33;;
70239;SDS011;57629;52.256;10.414;2022-08-19T05:00:28;3.78;;;2.97;;
70239;SDS011;57629;52.256;10.414;2022-08-19T05:01:29;3.80;;;3.00;;
70239;SDS011;57629;52.256;10.414;2022-08-19T05:02:31;5.18;;;3.15;;
70239;SDS011;57629;52.256;10.414;2022-08-19T05:03:32;3.58;;;3.00;;
70239;SDS011;57629;52.256;10.414;2022-08-19T05:04:33;3.72;;;3.10;;
70239;SDS011;57629;52.256;10.414;2022-08-19T05:05:33;4.47;;;3.10;;
70239;SDS011;57629;52.256;10.414;2022-08-19T05:06:38;4.53;;;3.00;;
70239;SDS011;57629;52.256;10.414;2022-08-19T05:07:39;3.83;;;3.03;;
70239;SDS011;57629;52.256;10.414;2022-08-19T05:08:41;4.40;;;3.50;;
70239;SDS011;57629;52.256;10.414;2022-08-19T05:09:42;3.80;;;3.03;;
70239;SDS011;57629;52.256;10.414;2022-08-19T05:10:43;4.03;;;3.13;;
70239;SDS011;57629;52.256;10.414;2022-08-19T05:11:44;4.43;;;3.40;;
70239;SDS011;57629;52.256;10.414;2022-08-19T05:12:45;5.00;;;3.40;;
70239;SDS011;57629;52.256;10.414;2022-08-19T05:13:47;4.72;;;3.33;;
70239;SDS011;57629;52.256;10.414;2022-08-19T05:14:48;4.95;;;3.22;;
70239;SDS011;57629;52.256;10.414;2022-08-19T05:15:52;4.03;;;2.97;;
70239;SDS011;57629;52.256;10.414;2022-08-19T05:16:54;5.22;;;3.38;;
70239;SDS011;57629;52.256;10.414;2022-08-19T05:17:54;3.63;;;3.05;;
70239;SDS011;57629;52.256;10.414;2022-08-19T05:18:55;3.87;;;3.00;;
70239;SDS011;57629;52.256;10.414;2022-08-19T05:19:56;3.97;;;2.90;;
70239;SDS011;57629;52.256;10.414;2022-08-19T05:20:57;4.00;;;2.73;;
70239;SDS011;57629;52.256;10.414;2022-08-19T05:21:58;3.88;;;3.28;;
70239;SDS011;57629;52.256;10.414;2022-08-19T05:22:59;3.95;;;3.10;;
70239;SDS011;57629;52.256;10.414;2022-08-19T05:24:00;3.77;;;3.33;;
70239;SDS011;57629;52.256;10.414;2022-08-19T05:25:04;3.55;;;2.90;;
70239;SDS011;57629;52.256;10.414;2022-08-19T05:26:07;4.60;;;3.40;;
70239;SDS011;57629;52.256;10.414;2022-08-19T05:27:07;4.33;;;3.10;;
70239;SDS011;57629;52.256;10.414;2022-08-19T05:28:08;3.97;;;2.85;;
70239;SDS011;57629;52.256;10.414;2022-08-19T05:29:10;4.43;;;2.90;;
70239;SDS011;57629;52.256;10.414;2022-08-19T05:30:11;4.03;;;3.00;;
70239;SDS011;57629;52.256;10.414;2022-08-19T05:31:12;4.47;;;3.27;;
70239;SDS011;57629;52.256;10.414;2022-08-19T05:32:13;4.25;;;3.03;;
70239;SDS011;57629;52.256;10.414;2022-08-19T05:33:13;5.37;;;3.23;;
70239;SDS011;57629;52.256;10.414;2022-08-19T05:34:14;4.53;;;3.00;;
70239;SDS011;57629;52.256;10.414;2022-08-19T05:35:16;5.10;;;3.20;;
70239;SDS011;57629;52.256;10.414;2022-08-19T05:36:17;3.65;;;2.72;;
70239;SDS011;57629;52.256;10.414;2022-08-19T05:37:18;3.57;;;3.07;;
70239;SDS011;57629;52.256;10.414;2022-08-19T05:38:18;3.55;;;2.80;;
70239;SDS011;57629;52.256;10.414;2022-08-19T05:39:20;3.60;;;3.00;;
70239;SDS011;57629;52.256;10.414;2022-08-19T05:40:21;4.30;;;3.17;;
70239;SDS011;57629;52.256;10.414;2022-08-19T05:41:21;3.80;;;3.10;;
70239;SDS011;57629;52.256;10.414;2022-08-19T05:42:22;3.35;;;2.90;;
70239;SDS011;57629;52.256;10.414;2022-08-19T05:43:23;3.53;;;3.03;;
70239;SDS011;57629;52.256;10.414;2022-08-19T05:44:25;4.25;;;2.95;;
70239;SDS011;57629;52.256;10.414;2022-08-19T05:45:27;4.30;;;2.80;;
70239;SDS011;57629;52.256;10.414;2022-08-19T05:46:27;3.47;;;2.90;;
70239;SDS011;57629;52.256;10.414;2022-08-19T05:47:28;4.22;;;3.35;;
70239;SDS011;57629;52.256;10.414;2022-08-19T05:48:29;4.50;;;2.80;;
70239;SDS011;57629;52.256;10.414;2022-08-19T05:49:30;3.70;;;2.95;;
70239;SDS011;57629;52.256;10.414;2022-08-19T05:50:32;3.58;;;2.97;;
70239;SDS011;57629;52.256;10.414;2022-08-19T05:51:35;4.38;;;2.95;;
70239;SDS011;57629;52.256;10.414;2022-08-19T05:52:40;4.00;;;3.28;;
70239;SDS011;57629;52.256;10.414;2022-08-19T05:53:43;4.23;;;3.13;;
70239;SDS011;57629;52.256;10.414;2022-08-19T05:54:44;4.50;;;2.72;;
70239;SDS011;57629;52.256;10.414;2022-08-19T05:57:14;3.80;;;3.00;;
70239;SDS011;57629;52.256;10.414;2022-08-19T05:58:21;4.97;;;3.15;;
70239;SDS011;57629;52.256;10.414;2022-08-19T05:59:22;3.30;;;2.75;;
70239;SDS011;57629;52.256;10.414;2022-08-19T06:01:54;3.90;;;3.10;;
70239;SDS011;57629;52.256;10.414;2022-08-19T06:03:14;3.22;;;2.70;;
70239;SDS011;57629;52.256;10.414;2022-08-19T06:04:38;3.10;;;2.40;;
70239;SDS011;57629;52.256;10.414;2022-08-19T06:05:49;3.30;;;2.90;;
70239;SDS011;57629;52.256;10.414;2022-08-19T06:06:53;3.38;;;2.88;;
70239;SDS011;57629;52.256;10.414;2022-08-19T06:09:13;4.70;;;3.10;;
70239;SDS011;57629;52.256;10.414;2022-08-19T06:10:13;3.40;;;2.90;;
70239;SDS011;57629;52.256;10.414;2022-08-19T06:11:15;4.85;;;2.70;;
70239;SDS011;57629;52.256;10.414;2022-08-19T06:12:18;3.45;;;3.00;;